Observations for Trim Market St
| Time | AQI | Temp °C | Hum % | Pres Pa | CO μg/m³ | H₂S μg/m³ | NO μg/m³ | NO₂ μg/m³ | O₃ μg/m³ | SO₂ μg/m³ | PM1 μg/m³ | PM2.5 μg/m³ | PM10 μg/m³ |
|---|---|---|---|---|---|---|---|---|---|---|---|---|---|
| Saturday 15 August 2026 | |||||||||||||
| 22:04 | 3 | 18.8 | 54 | 56,148 | 0 | 0 | 1.12 | 10.44 | 57.96 | 0 | 0 | 1.79 | 2.45 |
| 22:03 | 3 | 18.8 | 54 | 56,139 | 0 | 0 | 1.1 | 9.23 | 63.43 | 0 | 0 | 2.3 | 2.45 |
| 22:02 | 3 | 18.8 | 53 | 56,110 | 0 | 0 | 1.08 | 11.37 | 60.55 | 0 | 0 | 2.31 | 3.18 |
| 22:01 | 3 | 18.8 | 53 | 56,051 | 0 | 0 | 1.08 | 19 | 52.24 | 0 | 0 | 2.31 | 2.45 |
| 22:00 | 3 | 18.8 | 53 | 55,976 | 0 | 0 | 1.09 | 13.68 | 56.54 | 0 | 0 | 1.81 | 1.99 |
| 21:59 | 3 | 18.9 | 53 | 55,918 | 0 | 0 | 1.09 | 8.42 | 67.55 | 0 | 0 | 2.83 | 3.16 |
| 21:58 | 3 | 18.9 | 53 | 55,867 | 0 | 0 | 1.17 | 9.51 | 67.91 | 0 | 0.71 | 2.84 | 3.16 |
| 21:57 | 3 | 18.9 | 53 | 55,832 | 0 | 0 | 1.18 | 9.14 | 66.63 | 0 | 0 | 2.33 | 2.43 |
| 21:55 | 3 | 19 | 53 | 55,795 | 0 | 0 | 1.09 | 8.71 | 63.41 | 0 | 0 | 1.83 | 2.01 |
| 21:54 | 3 | 19 | 53 | 55,791 | 0.05 | 0 | 1.09 | 10.69 | 60.76 | 0 | 0 | 2.33 | 2.42 |
| 21:53 | 3 | 19 | 53 | 55,803 | 0.01 | 0 | 1.1 | 9.54 | 60.63 | 0 | 0 | 1.82 | 2.42 |
| 21:51 | 3 | 19 | 53 | 55,836 | 0 | 0 | 1.15 | 8.8 | 62.1 | 0 | 0 | 1.82 | 2.42 |
| 21:50 | 3 | 19.1 | 53 | 55,860 | 0 | 0 | 1.26 | 7.75 | 62.49 | 0 | 0.71 | 2.33 | 2.42 |
| 21:49 | 3 | 19.1 | 53 | 55,895 | 0 | 0 | 1.26 | 8.65 | 61.85 | 0 | 0.71 | 2.33 | 2.43 |
| 21:48 | 3 | 19.1 | 53 | 55,924 | 0 | 0 | 1.25 | 8.65 | 64.53 | 0 | 0 | 2.33 | 2.43 |
| 21:47 | 3 | 19.2 | 53 | 55,963 | 0 | 0 | 1.2 | 8.94 | 61.99 | 0 | 0 | 1.82 | 2 |
| 21:45 | 3 | 19.2 | 53 | 55,992 | 0 | 0 | 1.11 | 9.98 | 66.18 | 0 | 0 | 1.82 | 2 |
| 21:44 | 3 | 19.2 | 53 | 55,996 | 0 | 0 | 1.11 | 13.55 | 55.12 | 0 | 0.71 | 2.33 | 2.43 |
| 21:40 | 3 | 19.3 | 53 | 56,030 | 0 | 0 | 1.19 | 10.21 | 68.74 | 0 | 0 | 1.83 | 2.01 |
| 21:33 | 3 | 19.4 | 52 | 55,922 | 0 | 0 | 1.14 | 35.57 | 35.3 | 0 | 0 | 2.87 | 3.14 |